Time;durP1;ratioP1;P1;durP2;ratioP2;P2;SDS_P1;SDS_P2;PMS_P1;PMS_P2;Temp;Humidity;BMP_temperature;BMP_pressure;BME280_temperature;BME280_humidity;BME280_pressure;Samples;Min_cycle;Max_cycle;Signal;HPM_P1;HPM_P2
2021/04/17 00:02:21;;;;;;;15.32;11.57;;;;;;;;;;5025118;28;20273;-84
2021/04/17 00:04:47;;;;;;;11.50;10.35;;;;;;;;;;5025494;28;20206;-86
2021/04/17 00:07:14;;;;;;;12.48;10.98;;;;;;;;;;5018481;28;20183;-83
2021/04/17 00:09:40;;;;;;;15.88;10.63;;;;;;;;;;5017104;28;20202;-83
2021/04/17 00:12:09;;;;;;;12.98;10.77;;;;;;;;;;5022684;28;20178;-83
2021/04/17 00:14:36;;;;;;;14.20;11.02;;;;;;;;;;5028112;28;20199;-84
2021/04/17 00:17:03;;;;;;;18.13;12.25;;;;;;;;;;5024790;28;20194;-84
2021/04/17 00:19:29;;;;;;;15.55;11.55;;;;;;;;;;5041466;28;20557;-84
2021/04/17 00:21:55;;;;;;;13.00;11.40;;;;;;;;;;5021698;28;20185;-82
2021/04/17 00:24:21;;;;;;;14.45;11.75;;;;;;;;;;5019719;28;20213;-83
2021/04/17 00:26:47;;;;;;;12.55;11.00;;;;;;;;;;5022655;28;20182;-83
2021/04/17 00:29:13;;;;;;;15.68;11.30;;;;;;;;;;5024451;28;20269;-82
2021/04/17 00:31:39;;;;;;;15.75;11.55;;;;;;;;;;5024926;28;20175;-77
2021/04/17 00:34:06;;;;;;;13.40;11.02;;;;;;;;;;5025345;28;20254;-79
2021/04/17 00:36:32;;;;;;;12.18;10.45;;;;;;;;;;5025177;28;20217;-79
2021/04/17 00:38:58;;;;;;;14.55;11.60;;;;;;;;;;5024961;28;20706;-77
2021/04/17 00:41:25;;;;;;;12.65;11.30;;;;;;;;;;5024721;28;20252;-78
2021/04/17 00:43:51;;;;;;;12.70;10.65;;;;;;;;;;5026014;28;20190;-78
2021/04/17 00:46:17;;;;;;;18.45;11.30;;;;;;;;;;5024607;28;20182;-79
2021/04/17 00:48:43;;;;;;;16.35;11.35;;;;;;;;;;5025967;28;20266;-78
2021/04/17 00:51:10;;;;;;;12.30;10.95;;;;;;;;;;5024824;28;20179;-78
2021/04/17 00:53:36;;;;;;;13.13;10.80;;;;;;;;;;5024810;28;20193;-78
2021/04/17 00:56:06;;;;;;;16.83;11.98;;;;;;;;;;5025854;28;20174;-78
2021/04/17 00:58:32;;;;;;;14.80;11.80;;;;;;;;;;5025749;28;20669;-78
2021/04/17 01:00:58;;;;;;;13.80;10.90;;;;;;;;;;5020678;28;20189;-78
2021/04/17 01:03:30;;;;;;;13.95;11.25;;;;;;;;;;5019700;28;20206;-78
2021/04/17 01:06:00;;;;;;;15.75;11.60;;;;;;;;;;5018668;28;20237;-78
2021/04/17 01:08:26;;;;;;;12.25;10.13;;;;;;;;;;5024551;28;20198;-78
2021/04/17 01:10:54;;;;;;;12.32;10.82;;;;;;;;;;5026031;28;20186;-78
2021/04/17 01:13:21;;;;;;;13.70;10.95;;;;;;;;;;5024939;28;20210;-77
2021/04/17 01:15:48;;;;;;;18.50;11.18;;;;;;;;;;5018666;28;20480;-78
2021/04/17 01:18:14;;;;;;;14.98;9.95;;;;;;;;;;5024670;28;20636;-78
2021/04/17 01:20:46;;;;;;;13.90;11.63;;;;;;;;;;5025220;28;20174;-78
2021/04/17 01:23:30;;;;;;;16.40;11.38;;;;;;;;;;5024543;28;20209;-78
2021/04/17 01:25:56;;;;;;;16.38;10.73;;;;;;;;;;5025441;28;20175;-78
2021/04/17 01:28:23;;;;;;;15.00;10.77;;;;;;;;;;5024226;28;20194;-78
2021/04/17 01:30:50;;;;;;;14.45;10.55;;;;;;;;;;5024000;28;20425;-78
2021/04/17 01:33:17;;;;;;;15.68;10.70;;;;;;;;;;5024480;28;20213;-78
2021/04/17 01:35:44;;;;;;;12.73;10.68;;;;;;;;;;5024420;28;20217;-79
2021/04/17 01:38:14;;;;;;;13.27;10.23;;;;;;;;;;5024187;28;20183;-78
2021/04/17 01:40:43;;;;;;;15.65;9.95;;;;;;;;;;5025437;28;20187;-78
2021/04/17 01:43:09;;;;;;;13.02;9.55;;;;;;;;;;5024057;28;20349;-79
2021/04/17 01:45:36;;;;;;;14.13;10.05;;;;;;;;;;5023700;28;20275;-78
2021/04/17 01:48:03;;;;;;;14.18;10.85;;;;;;;;;;5022637;28;20178;-78
2021/04/17 01:50:31;;;;;;;11.93;9.90;;;;;;;;;;5018917;28;20186;-78
2021/04/17 01:52:58;;;;;;;13.48;10.18;;;;;;;;;;5023332;28;20191;-78
2021/04/17 01:55:24;;;;;;;12.45;9.57;;;;;;;;;;5023791;28;20191;-78
2021/04/17 01:57:50;;;;;;;10.68;9.43;;;;;;;;;;5023689;28;20194;-78
2021/04/17 02:00:17;;;;;;;15.45;9.60;;;;;;;;;;5023985;28;20197;-78
2021/04/17 02:02:43;;;;;;;15.23;8.93;;;;;;;;;;5023741;28;20183;-79
2021/04/17 02:05:09;;;;;;;12.23;9.40;;;;;;;;;;5022245;28;20182;-78
2021/04/17 02:07:35;;;;;;;13.65;9.85;;;;;;;;;;5022796;28;20250;-78
2021/04/17 02:10:01;;;;;;;15.82;9.93;;;;;;;;;;5023932;28;20178;-78
2021/04/17 02:12:27;;;;;;;12.80;10.40;;;;;;;;;;5019595;28;20211;-78
2021/04/17 02:14:55;;;;;;;13.20;9.38;;;;;;;;;;5027159;28;20217;-78
2021/04/17 02:17:25;;;;;;;16.75;10.98;;;;;;;;;;5032359;28;20186;-77
2021/04/17 02:20:01;;;;;;;10.40;9.07;;;;;;;;;;5024874;28;20190;-77
2021/04/17 02:22:27;;;;;;;14.35;9.63;;;;;;;;;;5023806;28;20209;-78
2021/04/17 02:24:53;;;;;;;12.63;9.00;;;;;;;;;;5016108;28;20198;-78
2021/04/17 02:27:20;;;;;;;12.00;8.40;;;;;;;;;;5022228;28;20206;-78
2021/04/17 02:29:52;;;;;;;13.35;8.98;;;;;;;;;;5022315;28;20218;-78
2021/04/17 02:32:18;;;;;;;14.82;10.25;;;;;;;;;;5023042;28;20193;-83
2021/04/17 02:34:44;;;;;;;12.98;9.35;;;;;;;;;;5024128;28;20187;-83
2021/04/17 02:37:11;;;;;;;14.82;9.45;;;;;;;;;;5022471;28;20183;-82
2021/04/17 02:39:37;;;;;;;10.43;9.45;;;;;;;;;;5021042;28;20650;-82
2021/04/17 02:42:03;;;;;;;14.20;9.73;;;;;;;;;;5021182;28;20186;-82
2021/04/17 02:44:29;;;;;;;11.75;8.57;;;;;;;;;;5027989;28;20220;-82
2021/04/17 02:46:55;;;;;;;12.93;9.35;;;;;;;;;;5023280;28;20174;-82
2021/04/17 02:49:21;;;;;;;9.10;8.20;;;;;;;;;;5022916;28;20184;-82
2021/04/17 02:51:47;;;;;;;17.17;10.40;;;;;;;;;;5018764;28;20556;-82
2021/04/17 02:54:13;;;;;;;12.65;9.88;;;;;;;;;;5022478;28;20205;-82
2021/04/17 02:56:39;;;;;;;15.63;10.75;;;;;;;;;;5017077;28;20325;-82
2021/04/17 02:59:05;;;;;;;13.10;9.85;;;;;;;;;;5019873;28;20187;-82
2021/04/17 03:01:31;;;;;;;11.52;9.98;;;;;;;;;;5022559;28;20183;-82
2021/04/17 03:03:57;;;;;;;12.05;9.00;;;;;;;;;;5022653;28;20210;-82
2021/04/17 03:06:23;;;;;;;14.43;10.10;;;;;;;;;;5020380;28;20221;-82
2021/04/17 03:08:49;;;;;;;11.75;9.93;;;;;;;;;;5016059;28;20226;-83
2021/04/17 03:11:15;;;;;;;14.15;10.60;;;;;;;;;;5032119;28;20181;-82
2021/04/17 03:13:41;;;;;;;10.20;8.35;;;;;;;;;;5022218;28;20190;-83
2021/04/17 03:16:08;;;;;;;14.38;9.85;;;;;;;;;;5022512;28;20186;-83
2021/04/17 03:18:34;;;;;;;12.10;9.45;;;;;;;;;;5018796;28;20189;-84
2021/04/17 03:21:00;;;;;;;14.27;9.73;;;;;;;;;;5023146;28;20194;-83
2021/04/17 03:23:26;;;;;;;14.90;9.45;;;;;;;;;;5022624;28;20737;-83
2021/04/17 03:25:52;;;;;;;13.05;10.02;;;;;;;;;;5022480;28;20250;-83
2021/04/17 03:28:18;;;;;;;15.18;10.40;;;;;;;;;;5025773;28;20202;-83
2021/04/17 03:30:44;;;;;;;17.02;10.32;;;;;;;;;;5026784;28;20248;-84
2021/04/17 03:33:10;;;;;;;13.88;9.80;;;;;;;;;;5021926;28;20194;-83
2021/04/17 03:35:36;;;;;;;12.93;10.13;;;;;;;;;;5026652;28;20194;-84
2021/04/17 03:38:03;;;;;;;14.65;10.15;;;;;;;;;;5026576;28;20244;-84
2021/04/17 03:40:29;;;;;;;15.15;9.35;;;;;;;;;;5026477;28;20248;-83
2021/04/17 03:42:55;;;;;;;14.20;10.48;;;;;;;;;;5022424;28;20210;-83
2021/04/17 03:45:22;;;;;;;14.80;10.80;;;;;;;;;;5026486;28;20224;-83
2021/04/17 03:47:48;;;;;;;13.35;10.75;;;;;;;;;;5024595;28;20190;-83
2021/04/17 03:50:15;;;;;;;14.32;10.70;;;;;;;;;;5026772;28;20181;-83
2021/04/17 03:52:41;;;;;;;14.95;10.13;;;;;;;;;;5025680;28;20560;-83
2021/04/17 03:55:09;;;;;;;14.85;9.38;;;;;;;;;;5025677;28;20317;-83
2021/04/17 03:57:35;;;;;;;12.13;9.73;;;;;;;;;;5025720;28;20197;-83
2021/04/17 04:00:02;;;;;;;14.98;10.10;;;;;;;;;;5030916;28;20182;-83
2021/04/17 04:02:28;;;;;;;12.93;10.55;;;;;;;;;;5020728;28;20258;-83
2021/04/17 04:04:54;;;;;;;11.98;10.40;;;;;;;;;;5026966;28;20222;-83
2021/04/17 04:07:20;;;;;;;14.68;11.05;;;;;;;;;;5025435;28;20249;-83
2021/04/17 04:09:46;;;;;;;14.77;10.82;;;;;;;;;;5021233;28;20230;-83
2021/04/17 04:12:12;;;;;;;14.45;10.30;;;;;;;;;;5025924;28;20191;-83
2021/04/17 04:14:38;;;;;;;14.32;10.20;;;;;;;;;;5024692;28;20228;-83
2021/04/17 04:17:04;;;;;;;16.08;10.77;;;;;;;;;;5026229;28;20179;-83
2021/04/17 04:19:30;;;;;;;15.60;10.10;;;;;;;;;;5023964;28;20182;-83
2021/04/17 04:21:56;;;;;;;12.88;11.13;;;;;;;;;;5023300;28;20187;-83
2021/04/17 04:24:22;;;;;;;16.20;11.20;;;;;;;;;;5020024;28;20207;-83
2021/04/17 04:26:48;;;;;;;20.38;12.85;;;;;;;;;;5025123;28;20186;-83
2021/04/17 04:29:14;;;;;;;12.32;10.45;;;;;;;;;;5023897;28;20634;-78
2021/04/17 04:31:40;;;;;;;14.60;10.00;;;;;;;;;;5026611;28;20182;-78
2021/04/17 04:34:06;;;;;;;14.07;11.05;;;;;;;;;;5025278;28;20662;-77
2021/04/17 04:36:32;;;;;;;13.40;10.52;;;;;;;;;;5026101;28;20249;-78
2021/04/17 04:38:58;;;;;;;15.55;10.68;;;;;;;;;;5023632;28;20213;-78
2021/04/17 04:41:24;;;;;;;15.73;11.15;;;;;;;;;;5025607;28;20218;-78
2021/04/17 04:43:51;;;;;;;15.25;11.18;;;;;;;;;;5026876;28;20205;-78
2021/04/17 04:46:17;;;;;;;11.88;10.60;;;;;;;;;;5021383;28;20329;-78
2021/04/17 04:48:43;;;;;;;17.13;10.75;;;;;;;;;;5025047;28;20201;-78
2021/04/17 04:51:10;;;;;;;14.73;12.27;;;;;;;;;;5020402;28;20187;-78
2021/04/17 04:53:36;;;;;;;15.40;11.00;;;;;;;;;;5024671;28;20178;-78
2021/04/17 04:56:02;;;;;;;13.02;11.55;;;;;;;;;;5024621;28;20218;-78
2021/04/17 04:58:28;;;;;;;13.77;10.95;;;;;;;;;;5024904;28;20265;-78
2021/04/17 05:00:55;;;;;;;16.25;12.20;;;;;;;;;;5025145;28;20190;-78
2021/04/17 05:03:21;;;;;;;17.25;12.32;;;;;;;;;;5025153;28;20210;-77
2021/04/17 05:05:47;;;;;;;15.30;11.80;;;;;;;;;;5024559;28;20197;-78
2021/04/17 05:08:13;;;;;;;15.52;11.15;;;;;;;;;;5024282;28;20187;-79
2021/04/17 05:10:39;;;;;;;20.20;14.75;;;;;;;;;;5013803;28;20175;-77
2021/04/17 05:13:05;;;;;;;19.45;10.85;;;;;;;;;;5022108;28;20240;-77
2021/04/17 05:15:31;;;;;;;17.20;11.48;;;;;;;;;;5021297;28;20676;-77
2021/04/17 05:17:57;;;;;;;18.92;11.60;;;;;;;;;;5023622;28;20179;-78
2021/04/17 05:20:23;;;;;;;13.05;11.23;;;;;;;;;;5028252;28;20194;-77
2021/04/17 05:22:49;;;;;;;15.30;11.88;;;;;;;;;;5019301;28;20190;-78
2021/04/17 05:25:15;;;;;;;13.02;9.80;;;;;;;;;;5024433;28;20183;-77
2021/04/17 05:27:41;;;;;;;16.75;11.75;;;;;;;;;;5024224;28;20210;-78
2021/04/17 05:30:07;;;;;;;14.52;11.85;;;;;;;;;;5023989;28;20222;-78
2021/04/17 05:32:33;;;;;;;13.60;11.25;;;;;;;;;;5024610;28;20175;-78
2021/04/17 05:34:59;;;;;;;15.43;10.75;;;;;;;;;;5024936;28;20505;-78
2021/04/17 05:37:25;;;;;;;12.88;10.05;;;;;;;;;;5023376;28;20453;-79
2021/04/17 05:39:51;;;;;;;13.02;10.55;;;;;;;;;;5021968;28;20175;-79
2021/04/17 05:42:17;;;;;;;14.40;11.75;;;;;;;;;;5024677;28;20676;-79
2021/04/17 05:44:43;;;;;;;13.30;11.20;;;;;;;;;;5024342;28;20210;-79
2021/04/17 05:47:09;;;;;;;16.17;12.57;;;;;;;;;;5023550;28;20171;-79
2021/04/17 05:49:35;;;;;;;13.90;11.43;;;;;;;;;;5023192;28;20253;-79
2021/04/17 05:52:01;;;;;;;16.23;12.43;;;;;;;;;;5023405;28;20259;-80
2021/04/17 05:54:27;;;;;;;16.40;10.55;;;;;;;;;;5023250;28;20298;-79
2021/04/17 05:56:53;;;;;;;15.32;11.88;;;;;;;;;;5024509;28;20254;-79
2021/04/17 05:59:19;;;;;;;17.30;12.13;;;;;;;;;;5022997;28;20196;-79
2021/04/17 06:01:45;;;;;;;14.50;11.80;;;;;;;;;;5024899;28;20177;-79
2021/04/17 06:04:11;;;;;;;14.60;12.10;;;;;;;;;;5023067;28;20603;-79
2021/04/17 06:06:37;;;;;;;20.08;12.23;;;;;;;;;;5023481;28;20658;-79
2021/04/17 06:09:04;;;;;;;14.02;10.05;;;;;;;;;;5023556;28;20186;-78
2021/04/17 06:11:30;;;;;;;13.68;11.75;;;;;;;;;;5021019;28;20234;-83
2021/04/17 06:13:56;;;;;;;16.60;11.55;;;;;;;;;;5019854;28;20178;-83
2021/04/17 06:16:22;;;;;;;14.15;11.55;;;;;;;;;;5021546;28;20193;-83
2021/04/17 06:18:48;;;;;;;14.40;10.85;;;;;;;;;;5023762;28;20187;-83
2021/04/17 06:21:14;;;;;;;17.27;12.77;;;;;;;;;;5018062;28;20187;-83
2021/04/17 06:23:40;;;;;;;12.70;10.93;;;;;;;;;;5021099;28;20576;-83
2021/04/17 06:26:06;;;;;;;19.92;12.02;;;;;;;;;;5021321;28;20621;-85
2021/04/17 06:28:33;;;;;;;16.52;11.25;;;;;;;;;;5020604;28;20174;-83
2021/04/17 06:30:59;;;;;;;19.83;11.75;;;;;;;;;;5017833;28;20175;-84
2021/04/17 06:33:25;;;;;;;16.60;11.38;;;;;;;;;;5014825;28;20194;-84
2021/04/17 06:35:51;;;;;;;13.57;12.18;;;;;;;;;;5020960;28;20266;-84
2021/04/17 06:38:17;;;;;;;17.52;11.45;;;;;;;;;;5021667;28;20314;-85
2021/04/17 06:40:45;;;;;;;13.05;10.55;;;;;;;;;;5022831;28;20190;-84
2021/04/17 06:43:11;;;;;;;13.13;11.15;;;;;;;;;;5023083;28;20218;-81
2021/04/17 06:45:39;;;;;;;15.43;12.13;;;;;;;;;;5019985;28;20186;-80
2021/04/17 06:48:09;;;;;;;17.42;11.07;;;;;;;;;;5022869;28;20175;-79
2021/04/17 06:50:35;;;;;;;12.65;10.18;;;;;;;;;;5022550;28;20628;-80
2021/04/17 06:53:07;;;;;;;15.20;11.02;;;;;;;;;;5023444;28;20194;-80
2021/04/17 06:55:33;;;;;;;21.08;11.07;;;;;;;;;;5022830;28;20194;-85
2021/04/17 06:58:00;;;;;;;13.68;11.15;;;;;;;;;;5026047;28;20193;-85
2021/04/17 07:00:26;;;;;;;12.98;10.10;;;;;;;;;;5018662;28;20196;-86
2021/04/17 07:02:52;;;;;;;11.32;10.23;;;;;;;;;;5018945;28;20194;-84
2021/04/17 07:05:19;;;;;;;15.23;10.07;;;;;;;;;;5020113;28;20182;-85
2021/04/17 07:07:45;;;;;;;16.73;10.82;;;;;;;;;;5022709;28;20221;-84
2021/04/17 07:10:11;;;;;;;14.88;10.50;;;;;;;;;;5019071;28;20550;-83
2021/04/17 07:12:37;;;;;;;15.00;10.02;;;;;;;;;;5019816;28;20175;-84
2021/04/17 07:15:08;;;;;;;11.90;9.50;;;;;;;;;;5021257;28;20198;-86
2021/04/17 07:17:34;;;;;;;13.13;11.00;;;;;;;;;;5033293;28;20209;-83
2021/04/17 07:20:03;;;;;;;12.73;9.25;;;;;;;;;;5022226;28;20170;-83
2021/04/17 07:22:29;;;;;;;13.63;9.70;;;;;;;;;;5031722;28;20209;-79
2021/04/17 07:24:56;;;;;;;13.38;9.55;;;;;;;;;;5014835;28;20198;-79
2021/04/17 07:27:35;;;;;;;14.35;9.35;;;;;;;;;;5022134;28;20185;-79
2021/04/17 07:30:02;;;;;;;13.05;10.10;;;;;;;;;;5020468;28;20254;-79
2021/04/17 07:32:28;;;;;;;12.75;9.30;;;;;;;;;;5022103;28;20261;-86
2021/04/17 07:35:24;;;;;;;14.82;10.30;;;;;;;;;;5021020;28;20328;-82
2021/04/17 07:38:06;;;;;;;13.98;9.65;;;;;;;;;;5016060;28;20255;-85
2021/04/17 07:40:33;;;;;;;11.95;9.48;;;;;;;;;;5019769;28;20214;-84
2021/04/17 07:42:59;;;;;;;13.98;8.88;;;;;;;;;;5013578;28;20357;-84
2021/04/17 07:45:36;;;;;;;14.50;9.57;;;;;;;;;;5018113;28;20195;-85
2021/04/17 07:48:19;;;;;;;14.80;10.02;;;;;;;;;;5015461;28;20658;-79
2021/04/17 07:50:45;;;;;;;12.10;9.10;;;;;;;;;;5037515;28;20178;-78
2021/04/17 07:53:30;;;;;;;12.98;9.20;;;;;;;;;;5022756;28;20184;-84
2021/04/17 07:55:56;;;;;;;10.10;8.90;;;;;;;;;;5025371;28;20181;-79
2021/04/17 07:58:22;;;;;;;11.60;9.13;;;;;;;;;;5022912;28;20703;-79
2021/04/17 08:00:48;;;;;;;11.25;8.98;;;;;;;;;;5021371;28;20190;-81
2021/04/17 08:03:17;;;;;;;11.20;8.68;;;;;;;;;;5019674;28;20203;-79
2021/04/17 08:05:43;;;;;;;13.73;8.93;;;;;;;;;;5019018;28;20391;-79
2021/04/17 08:08:09;;;;;;;9.95;8.48;;;;;;;;;;5015898;28;20179;-80
2021/04/17 08:10:35;;;;;;;10.00;8.65;;;;;;;;;;5023392;28;20191;-81
2021/04/17 08:13:03;;;;;;;10.23;8.50;;;;;;;;;;5022908;28;20213;-79
2021/04/17 08:15:32;;;;;;;14.93;9.95;;;;;;;;;;5024980;28;20187;-80
2021/04/17 08:17:58;;;;;;;10.88;9.27;;;;;;;;;;5024256;28;20739;-80
2021/04/17 08:20:24;;;;;;;10.23;7.53;;;;;;;;;;5016448;28;20698;-80
2021/04/17 08:22:52;;;;;;;10.82;8.50;;;;;;;;;;5020546;28;20206;-81
2021/04/17 08:25:22;;;;;;;8.25;7.40;;;;;;;;;;5039533;28;20178;-83
2021/04/17 08:27:48;;;;;;;11.15;8.05;;;;;;;;;;5024931;28;20178;-81
2021/04/17 08:30:19;;;;;;;10.55;8.13;;;;;;;;;;5024349;28;20214;-78
2021/04/17 08:32:46;;;;;;;13.73;7.95;;;;;;;;;;5022157;28;20186;-83
2021/04/17 08:35:16;;;;;;;12.88;8.20;;;;;;;;;;5021113;28;20186;-81
2021/04/17 08:37:51;;;;;;;10.90;8.73;;;;;;;;;;5024560;28;20204;-81
2021/04/17 08:40:40;;;;;;;8.75;7.80;;;;;;;;;;5025364;28;20170;-81
2021/04/17 08:43:26;;;;;;;12.27;8.48;;;;;;;;;;5021814;28;20218;-82
2021/04/17 08:46:07;;;;;;;9.13;7.25;;;;;;;;;;5024880;28;20418;-82
2021/04/17 08:48:43;;;;;;;10.95;7.85;;;;;;;;;;5025857;28;20225;-83
2021/04/17 08:51:21;;;;;;;11.45;7.80;;;;;;;;;;5023683;28;20206;-83
2021/04/17 08:53:52;;;;;;;12.75;8.00;;;;;;;;;;5024532;28;20190;-83
2021/04/17 08:56:18;;;;;;;12.98;7.70;;;;;;;;;;5025519;28;20213;-82
2021/04/17 08:59:03;;;;;;;10.73;8.00;;;;;;;;;;5026493;28;20246;-82
2021/04/17 09:01:29;;;;;;;9.23;8.27;;;;;;;;;;5024983;28;20192;-83
2021/04/17 09:04:08;;;;;;;9.50;7.60;;;;;;;;;;5025015;28;20231;-84
2021/04/17 09:06:34;;;;;;;10.68;7.97;;;;;;;;;;5020808;28;20504;-82
2021/04/17 09:09:19;;;;;;;12.47;8.90;;;;;;;;;;5024600;28;20182;-82
2021/04/17 09:12:17;;;;;;;12.18;7.20;;;;;;;;;;5021925;28;20429;-82
2021/04/17 09:14:53;;;;;;;10.38;7.57;;;;;;;;;;5006078;28;20198;-84
2021/04/17 09:17:31;;;;;;;9.73;7.80;;;;;;;;;;5022086;28;20190;-83
2021/04/17 09:19:58;;;;;;;12.43;8.75;;;;;;;;;;5013261;28;20543;-83
2021/04/17 09:22:33;;;;;;;10.73;8.05;;;;;;;;;;5022179;28;20194;-82
2021/04/17 09:24:59;;;;;;;8.57;6.90;;;;;;;;;;5021516;28;20213;-82
2021/04/17 09:27:28;;;;;;;9.30;7.50;;;;;;;;;;5022265;28;20304;-83
2021/04/17 09:29:57;;;;;;;10.68;8.35;;;;;;;;;;5002306;28;20496;-84
2021/04/17 09:32:23;;;;;;;9.68;7.45;;;;;;;;;;5022174;28;20203;-82
2021/04/17 09:34:49;;;;;;;8.50;7.45;;;;;;;;;;5012255;28;20183;-79
2021/04/17 09:37:14;;;;;;;9.68;7.50;;;;;;;;;;5022150;28;20230;-84
2021/04/17 09:39:47;;;;;;;9.63;7.75;;;;;;;;;;5005171;28;20197;-81
2021/04/17 09:42:13;;;;;;;10.10;8.18;;;;;;;;;;5011630;28;20190;-82
2021/04/17 09:44:43;;;;;;;9.88;7.72;;;;;;;;;;5021703;28;20235;-80
2021/04/17 09:47:10;;;;;;;8.48;7.20;;;;;;;;;;5022020;28;20174;-82
2021/04/17 09:49:37;;;;;;;8.10;7.25;;;;;;;;;;5010539;28;20209;-83
2021/04/17 09:52:03;;;;;;;10.60;7.43;;;;;;;;;;5024147;28;20182;-82
2021/04/17 09:54:29;;;;;;;8.75;7.20;;;;;;;;;;5023662;28;20218;-83
2021/04/17 09:56:55;;;;;;;8.82;7.22;;;;;;;;;;5024289;28;20675;-81
2021/04/17 09:59:21;;;;;;;13.85;7.82;;;;;;;;;;5022408;28;20190;-82
2021/04/17 10:01:54;;;;;;;8.48;7.53;;;;;;;;;;5025298;28;20237;-81
2021/04/17 10:04:21;;;;;;;8.70;6.82;;;;;;;;;;5019845;28;20214;-80
2021/04/17 10:06:57;;;;;;;8.43;7.25;;;;;;;;;;5019928;28;20179;-81
2021/04/17 10:09:24;;;;;;;9.07;6.60;;;;;;;;;;5019142;28;20187;-83
2021/04/17 10:11:50;;;;;;;8.27;7.20;;;;;;;;;;5021842;28;20193;-81
2021/04/17 10:14:17;;;;;;;8.50;6.28;;;;;;;;;;5024385;28;20205;-82
2021/04/17 10:16:45;;;;;;;11.27;7.03;;;;;;;;;;5022606;28;20178;-82
2021/04/17 10:19:12;;;;;;;7.13;6.50;;;;;;;;;;5023658;28;20190;-83
2021/04/17 10:21:38;;;;;;;9.10;7.28;;;;;;;;;;5023370;28;20190;-80
2021/04/17 10:24:24;;;;;;;7.03;6.03;;;;;;;;;;5023476;28;20206;-79
2021/04/17 10:26:56;;;;;;;8.27;7.47;;;;;;;;;;5020564;28;20175;-82
2021/04/17 10:29:22;;;;;;;8.52;7.13;;;;;;;;;;5022302;28;20228;-81
2021/04/17 10:32:04;;;;;;;6.70;6.00;;;;;;;;;;5024574;28;20233;-81
2021/04/17 10:34:30;;;;;;;10.48;7.07;;;;;;;;;;5023561;28;20229;-78
2021/04/17 10:37:01;;;;;;;9.10;6.22;;;;;;;;;;5022080;28;20190;-80
2021/04/17 10:39:27;;;;;;;7.97;6.13;;;;;;;;;;5018604;28;20190;-81
2021/04/17 10:41:58;;;;;;;6.55;5.88;;;;;;;;;;5021629;28;20275;-80
2021/04/17 10:44:24;;;;;;;10.50;6.50;;;;;;;;;;5023236;28;20215;-88
2021/04/17 10:46:50;;;;;;;8.95;6.80;;;;;;;;;;5024586;28;20178;-81
2021/04/17 10:49:45;;;;;;;11.43;6.93;;;;;;;;;;5027488;28;20237;-79
2021/04/17 10:52:32;;;;;;;7.53;6.00;;;;;;;;;;5021661;28;20542;-80
2021/04/17 10:54:58;;;;;;;8.45;6.95;;;;;;;;;;5022807;28;20217;-83
2021/04/17 10:57:25;;;;;;;8.55;6.57;;;;;;;;;;5023529;28;20182;-80
2021/04/17 11:00:01;;;;;;;7.15;6.35;;;;;;;;;;5023266;28;20193;-78
2021/04/17 11:02:29;;;;;;;7.03;6.20;;;;;;;;;;5020799;28;20181;-81
2021/04/17 11:04:56;;;;;;;8.82;7.35;;;;;;;;;;5021908;28;20209;-86
2021/04/17 11:07:28;;;;;;;10.48;7.55;;;;;;;;;;5018992;28;20179;-85
2021/04/17 11:09:54;;;;;;;12.15;6.70;;;;;;;;;;5020801;28;20186;-86
2021/04/17 11:12:31;;;;;;;7.90;7.10;;;;;;;;;;5016942;28;20190;-86
2021/04/17 11:15:15;;;;;;;7.07;6.38;;;;;;;;;;5022147;28;20448;-82
2021/04/17 11:17:41;;;;;;;7.57;6.85;;;;;;;;;;5034360;28;20182;-82
2021/04/17 11:20:18;;;;;;;7.75;7.05;;;;;;;;;;5022676;28;20188;-80
2021/04/17 11:22:44;;;;;;;8.52;6.80;;;;;;;;;;5021155;28;20178;-80
2021/04/17 11:25:10;;;;;;;9.80;7.55;;;;;;;;;;5022609;28;20213;-80
2021/04/17 11:27:37;;;;;;;9.50;6.85;;;;;;;;;;5022465;28;20184;-81
2021/04/17 11:30:05;;;;;;;9.20;6.70;;;;;;;;;;5020986;28;20235;-79
2021/04/17 11:32:31;;;;;;;10.23;7.35;;;;;;;;;;5022602;28;20198;-80
2021/04/17 11:34:57;;;;;;;8.10;7.30;;;;;;;;;;5022626;28;20210;-82
2021/04/17 11:37:25;;;;;;;8.00;6.45;;;;;;;;;;5017708;28;20477;-84
2021/04/17 11:39:51;;;;;;;7.38;6.53;;;;;;;;;;5017603;28;20189;-84
2021/04/17 11:42:18;;;;;;;9.53;6.30;;;;;;;;;;5015890;28;20191;-80
2021/04/17 11:44:44;;;;;;;10.38;7.13;;;;;;;;;;5022939;28;20981;-82
2021/04/17 11:47:10;;;;;;;8.25;6.53;;;;;;;;;;5022696;28;20197;-83
2021/04/17 11:49:36;;;;;;;9.00;6.85;;;;;;;;;;5024492;28;20183;-83
2021/04/17 11:52:03;;;;;;;7.80;6.50;;;;;;;;;;5026843;28;20189;-82
2021/04/17 11:54:29;;;;;;;7.75;6.65;;;;;;;;;;5020339;28;20222;-83
2021/04/17 11:56:54;;;;;;;7.40;6.65;;;;;;;;;;5025728;28;20199;-85
2021/04/17 11:59:20;;;;;;;7.73;6.50;;;;;;;;;;5026484;28;20183;-81
2021/04/17 12:01:46;;;;;;;7.22;5.85;;;;;;;;;;5018824;28;20423;-78
2021/04/17 12:04:13;;;;;;;9.03;6.57;;;;;;;;;;5018292;28;20221;-80
2021/04/17 12:06:39;;;;;;;11.00;6.43;;;;;;;;;;5026163;28;20853;-83
2021/04/17 12:09:05;;;;;;;6.40;5.80;;;;;;;;;;5025159;28;20182;-85
2021/04/17 12:11:31;;;;;;;7.07;6.05;;;;;;;;;;5024507;28;20186;-84
2021/04/17 12:13:57;;;;;;;7.55;6.35;;;;;;;;;;5025962;28;20179;-87
2021/04/17 12:16:32;;;;;;;6.18;5.57;;;;;;;;;;5021958;28;20243;-86
2021/04/17 12:18:58;;;;;;;7.68;5.22;;;;;;;;;;5026014;28;20192;-83
2021/04/17 12:21:24;;;;;;;6.73;5.80;;;;;;;;;;5021187;28;20210;-81
2021/04/17 12:23:52;;;;;;;6.50;5.83;;;;;;;;;;5024441;28;20480;-79
2021/04/17 12:26:18;;;;;;;5.60;5.10;;;;;;;;;;5024645;28;20464;-84
2021/04/17 12:28:44;;;;;;;6.43;4.75;;;;;;;;;;5039409;28;20206;-77
2021/04/17 12:31:10;;;;;;;4.80;4.40;;;;;;;;;;5021457;28;20170;-81
2021/04/17 12:33:36;;;;;;;5.77;5.27;;;;;;;;;;5022139;28;20923;-82
2021/04/17 12:36:02;;;;;;;7.38;5.68;;;;;;;;;;5025770;28;20452;-81
2021/04/17 12:38:28;;;;;;;5.65;4.53;;;;;;;;;;5024942;28;20554;-80
2021/04/17 12:40:55;;;;;;;6.75;5.18;;;;;;;;;;5024980;28;20254;-82
2021/04/17 12:43:21;;;;;;;7.32;5.85;;;;;;;;;;5025714;28;20616;-81
2021/04/17 12:45:47;;;;;;;5.40;4.50;;;;;;;;;;5023801;28;20743;-78
2021/04/17 12:48:17;;;;;;;5.00;4.43;;;;;;;;;;5031604;28;20204;-80
2021/04/17 12:50:43;;;;;;;5.18;4.65;;;;;;;;;;5024309;28;20218;-79
2021/04/17 12:53:09;;;;;;;5.00;4.50;;;;;;;;;;5024637;28;20191;-80
2021/04/17 12:55:35;;;;;;;5.50;4.95;;;;;;;;;;5024660;28;20196;-85
2021/04/17 12:58:01;;;;;;;6.80;4.88;;;;;;;;;;5024206;28;20188;-88
2021/04/17 13:00:27;;;;;;;6.57;5.40;;;;;;;;;;5020225;28;20246;-87
2021/04/17 13:02:53;;;;;;;5.63;4.93;;;;;;;;;;5025528;28;20464;-87
2021/04/17 13:05:19;;;;;;;5.00;4.60;;;;;;;;;;5022352;28;20438;-82
2021/04/17 13:07:45;;;;;;;9.33;5.67;;;;;;;;;;5025519;28;20413;-85
2021/04/17 13:10:12;;;;;;;5.28;4.50;;;;;;;;;;5021083;28;20433;-80
2021/04/17 13:12:38;;;;;;;5.82;5.05;;;;;;;;;;5024749;28;20198;-82
2021/04/17 13:15:05;;;;;;;5.83;4.97;;;;;;;;;;5036077;28;20187;-84
2021/04/17 13:17:31;;;;;;;5.30;4.75;;;;;;;;;;5024881;28;20443;-81
2021/04/17 13:19:57;;;;;;;4.70;4.20;;;;;;;;;;5021303;28;20197;-81
2021/04/17 13:22:23;;;;;;;5.47;4.90;;;;;;;;;;5022139;28;20442;-88
2021/04/17 13:24:51;;;;;;;5.63;4.50;;;;;;;;;;5022978;28;20472;-81
2021/04/17 13:27:17;;;;;;;4.70;4.30;;;;;;;;;;5024482;28;20430;-83
2021/04/17 13:29:43;;;;;;;4.50;4.20;;;;;;;;;;5023951;28;20606;-80
2021/04/17 13:32:09;;;;;;;4.10;3.80;;;;;;;;;;5024391;28;20174;-81
2021/04/17 13:34:35;;;;;;;5.10;4.43;;;;;;;;;;5024177;28;20452;-82
2021/04/17 13:37:01;;;;;;;5.03;4.53;;;;;;;;;;5020581;28;20464;-80
2021/04/17 13:39:27;;;;;;;5.18;4.70;;;;;;;;;;5019708;28;20955;-78
2021/04/17 13:41:53;;;;;;;5.95;4.35;;;;;;;;;;5024341;28;20743;-79
2021/04/17 13:44:19;;;;;;;4.50;4.00;;;;;;;;;;5024427;28;20194;-79
2021/04/17 13:46:45;;;;;;;5.30;4.25;;;;;;;;;;5025666;28;20444;-79
2021/04/17 13:49:12;;;;;;;5.30;4.80;;;;;;;;;;5020090;28;20189;-78
2021/04/17 13:51:38;;;;;;;5.90;4.47;;;;;;;;;;5027247;28;20478;-79
2021/04/17 13:54:04;;;;;;;4.30;3.83;;;;;;;;;;5022611;28;20188;-78
2021/04/17 13:56:30;;;;;;;4.03;3.63;;;;;;;;;;5021472;28;20438;-78
2021/04/17 13:58:56;;;;;;;5.23;4.47;;;;;;;;;;5025165;28;20226;-82
2021/04/17 14:01:22;;;;;;;5.37;4.80;;;;;;;;;;5023699;28;20441;-78
2021/04/17 14:03:48;;;;;;;5.77;5.23;;;;;;;;;;5022941;28;20475;-82
2021/04/17 14:06:14;;;;;;;8.73;5.53;;;;;;;;;;5018980;28;20437;-78
2021/04/17 14:08:41;;;;;;;6.70;5.75;;;;;;;;;;5019422;28;20974;-79
2021/04/17 14:11:09;;;;;;;5.27;4.20;;;;;;;;;;5023385;28;20185;-78
2021/04/17 14:13:35;;;;;;;5.70;5.10;;;;;;;;;;5022537;28;20421;-83
2021/04/17 14:16:01;;;;;;;5.80;5.20;;;;;;;;;;5017634;28;20754;-80
2021/04/17 14:18:27;;;;;;;5.35;4.60;;;;;;;;;;5022962;28;20907;-85
2021/04/17 14:20:53;;;;;;;6.47;5.88;;;;;;;;;;5021465;28;20186;-81
2021/04/17 14:23:20;;;;;;;5.97;5.43;;;;;;;;;;5022799;28;20202;-85
2021/04/17 14:25:46;;;;;;;5.63;5.13;;;;;;;;;;5021912;28;20444;-85
2021/04/17 14:28:12;;;;;;;6.32;4.88;;;;;;;;;;5019594;28;20356;-81
2021/04/17 14:30:44;;;;;;;5.40;4.90;;;;;;;;;;5019293;28;20218;-84
2021/04/17 14:33:10;;;;;;;4.82;4.30;;;;;;;;;;5010327;28;20205;-84